createdAt,value
2023-03-10T00:00:06.494Z,3.50
2023-03-10T00:00:17.006Z,3.50
2023-03-10T00:00:27.509Z,3.51
2023-03-10T00:00:38.009Z,3.48
2023-03-10T00:00:48.504Z,3.51
2023-03-10T00:00:59.014Z,3.50
2023-03-10T00:01:09.535Z,3.50
2023-03-10T00:01:20.034Z,3.51
2023-03-10T00:01:30.534Z,3.51
2023-03-10T00:01:41.035Z,3.50
2023-03-10T00:01:51.536Z,3.48
2023-03-10T00:02:02.038Z,3.50
2023-03-10T00:02:12.542Z,3.50
2023-03-10T00:02:23.048Z,3.50
2023-03-10T00:02:33.546Z,3.48
2023-03-10T00:02:44.057Z,3.50
2023-03-10T00:02:54.560Z,3.48
2023-03-10T00:03:05.073Z,3.51
2023-03-10T00:03:15.567Z,3.50
2023-03-10T00:03:26.075Z,3.50
2023-03-10T00:03:36.570Z,3.51
2023-03-10T00:03:47.121Z,3.51
2023-03-10T00:03:57.586Z,3.51
2023-03-10T00:04:08.119Z,3.51
2023-03-10T00:04:18.713Z,3.52
2023-03-10T00:04:29.119Z,3.51
2023-03-10T00:04:39.623Z,3.52
2023-03-10T00:04:50.152Z,3.51
2023-03-10T00:05:00.602Z,3.51
2023-03-10T00:05:11.116Z,3.51
2023-03-10T00:05:21.657Z,3.52
2023-03-10T00:05:32.134Z,3.52
2023-03-10T00:05:42.676Z,3.52
2023-03-10T00:05:53.254Z,3.52
2023-03-10T00:06:03.732Z,3.52
2023-03-10T00:06:14.146Z,3.52
2023-03-10T00:06:24.628Z,3.54
2023-03-10T00:06:35.156Z,3.54
2023-03-10T00:06:45.651Z,3.55
2023-03-10T00:06:56.151Z,3.54
2023-03-10T00:07:06.651Z,3.52
2023-03-10T00:07:17.151Z,3.52
2023-03-10T00:07:27.657Z,3.54
2023-03-10T00:07:38.165Z,3.52
2023-03-10T00:07:48.669Z,3.54
2023-03-10T00:07:59.191Z,3.51
2023-03-10T00:08:09.686Z,3.52
2023-03-10T00:08:20.223Z,3.54
2023-03-10T00:08:30.694Z,3.52
2023-03-10T00:08:41.232Z,3.54
2023-03-10T00:08:51.723Z,3.52
2023-03-10T00:09:02.247Z,3.54
2023-03-10T00:09:12.718Z,3.54
2023-03-10T00:09:23.218Z,3.52
2023-03-10T00:09:33.730Z,3.54
2023-03-10T00:09:44.235Z,3.54
2023-03-10T00:09:54.737Z,3.55
2023-03-10T00:10:05.243Z,3.54
2023-03-10T00:10:15.751Z,3.54
2023-03-10T00:10:26.264Z,3.54
2023-03-10T00:10:36.763Z,3.54
2023-03-10T00:10:47.298Z,3.52
2023-03-10T00:10:57.772Z,3.54
2023-03-10T00:11:08.292Z,3.55
2023-03-10T00:11:18.792Z,3.54
2023-03-10T00:11:29.316Z,3.54
2023-03-10T00:11:39.818Z,3.55
2023-03-10T00:11:50.306Z,3.55
2023-03-10T00:12:00.816Z,3.55
2023-03-10T00:12:11.311Z,3.55
2023-03-10T00:12:21.817Z,3.55
2023-03-10T00:12:32.327Z,3.54
2023-03-10T00:12:42.826Z,3.55
2023-03-10T00:12:53.329Z,3.54
2023-03-10T00:13:03.836Z,3.54
2023-03-10T00:13:14.353Z,3.54
2023-03-10T00:13:24.848Z,3.55
2023-03-10T00:13:35.362Z,3.55
2023-03-10T00:13:45.859Z,3.55
2023-03-10T00:13:56.370Z,3.52
2023-03-10T00:14:06.876Z,3.54
2023-03-10T00:14:17.379Z,3.55
2023-03-10T00:14:27.878Z,3.54
2023-03-10T00:14:38.388Z,3.54
2023-03-10T00:14:48.892Z,3.55
2023-03-10T00:14:59.396Z,3.54
2023-03-10T00:15:09.896Z,3.54
2023-03-10T00:15:20.400Z,3.54
2023-03-10T00:15:30.914Z,3.55
2023-03-10T00:15:41.492Z,3.57
2023-03-10T00:15:51.938Z,3.54
2023-03-10T00:16:02.516Z,3.57
2023-03-10T00:16:12.981Z,3.55
2023-03-10T00:16:23.452Z,3.54
2023-03-10T00:16:33.925Z,3.55
2023-03-10T00:16:44.427Z,3.55
2023-03-10T00:16:54.929Z,3.55
2023-03-10T00:17:05.434Z,3.57
2023-03-10T00:17:15.947Z,3.55
2023-03-10T00:17:26.448Z,3.57
2023-03-10T00:17:36.944Z,3.55
2023-03-10T00:17:47.476Z,3.60
2023-03-10T00:17:57.955Z,3.58
2023-03-10T00:18:08.452Z,3.58
2023-03-10T00:18:18.956Z,3.60
2023-03-10T00:18:29.474Z,3.60
2023-03-10T00:18:39.966Z,3.60
2023-03-10T00:18:50.467Z,3.60
2023-03-10T00:19:00.981Z,3.60
2023-03-10T00:19:11.491Z,3.60
2023-03-10T00:19:21.982Z,3.60
2023-03-10T00:19:32.488Z,3.60
2023-03-10T00:19:42.995Z,3.62
2023-03-10T00:19:53.492Z,3.61
2023-03-10T00:20:04.008Z,3.61
2023-03-10T00:20:14.538Z,3.61
2023-03-10T00:20:25.049Z,3.61
2023-03-10T00:20:35.537Z,3.62
2023-03-10T00:20:46.023Z,3.65
2023-03-10T00:20:56.528Z,3.65
2023-03-10T00:21:07.036Z,3.68
2023-03-10T00:21:17.540Z,3.70
2023-03-10T00:21:28.041Z,3.72
2023-03-10T00:21:38.553Z,3.73
2023-03-10T00:21:49.057Z,3.72
2023-03-10T00:21:59.565Z,3.75
2023-03-10T00:22:10.056Z,3.75
2023-03-10T00:22:20.562Z,3.76
2023-03-10T00:22:31.097Z,3.76
2023-03-10T00:22:41.570Z,3.78
2023-03-10T00:22:52.077Z,3.78
2023-03-10T00:23:02.606Z,3.76
2023-03-10T00:23:13.119Z,3.75
2023-03-10T00:23:23.591Z,3.78
2023-03-10T00:23:37.265Z,3.76
2023-03-10T00:23:44.624Z,3.76
2023-03-10T00:23:55.114Z,3.78
2023-03-10T00:24:05.619Z,3.76
2023-03-10T00:24:16.128Z,3.76
2023-03-10T00:24:26.613Z,3.78
2023-03-10T00:24:37.125Z,3.76
2023-03-10T00:24:47.639Z,3.76
2023-03-10T00:24:58.137Z,3.76
2023-03-10T00:25:08.632Z,3.78
2023-03-10T00:25:19.135Z,3.76
2023-03-10T00:25:29.635Z,3.79
2023-03-10T00:25:40.148Z,3.79
2023-03-10T00:25:50.642Z,3.79
2023-03-10T00:26:01.158Z,3.79
2023-03-10T00:26:11.655Z,3.79
2023-03-10T00:26:22.156Z,3.78
2023-03-10T00:26:32.663Z,3.80
2023-03-10T00:26:43.194Z,3.79
2023-03-10T00:26:53.666Z,3.80
2023-03-10T00:27:04.169Z,3.80
2023-03-10T00:27:14.686Z,3.83
2023-03-10T00:27:25.183Z,3.83
2023-03-10T00:27:35.711Z,3.80
2023-03-10T00:27:46.200Z,3.83
2023-03-10T00:27:56.701Z,3.84
2023-03-10T00:28:07.214Z,3.83
2023-03-10T00:28:17.716Z,3.83
2023-03-10T00:28:28.212Z,3.84
2023-03-10T00:28:38.721Z,3.83
2023-03-10T00:28:49.229Z,3.83
2023-03-10T00:28:59.721Z,3.80
2023-03-10T00:29:10.225Z,3.84
2023-03-10T00:29:20.727Z,3.80
2023-03-10T00:29:31.239Z,3.80
2023-03-10T00:29:41.739Z,3.80
2023-03-10T00:29:52.244Z,3.83
2023-03-10T00:30:02.747Z,3.83
2023-03-10T00:30:13.254Z,3.84
2023-03-10T00:30:23.787Z,3.84
2023-03-10T00:30:34.258Z,3.83
2023-03-10T00:30:44.817Z,3.80
2023-03-10T00:30:55.343Z,3.84
2023-03-10T00:31:06.061Z,3.83
2023-03-10T00:31:16.789Z,3.83
2023-03-10T00:31:27.332Z,3.84
2023-03-10T00:31:37.858Z,3.84
2023-03-10T00:31:48.299Z,3.84
2023-03-10T00:31:58.793Z,3.84
2023-03-10T00:32:09.319Z,3.84
2023-03-10T00:32:19.872Z,3.84
2023-03-10T00:32:30.360Z,3.83
2023-03-10T00:32:40.976Z,3.84
2023-03-10T00:32:51.394Z,3.86
2023-03-10T00:33:01.823Z,3.86
2023-03-10T00:33:12.338Z,3.84
2023-03-10T00:33:22.840Z,3.86
2023-03-10T00:33:33.338Z,3.84
2023-03-10T00:33:43.848Z,3.86
2023-03-10T00:33:54.355Z,3.83
2023-03-10T00:34:04.859Z,3.86
2023-03-10T00:34:15.358Z,3.87
2023-03-10T00:34:25.872Z,3.86
2023-03-10T00:34:36.375Z,3.87
2023-03-10T00:34:46.887Z,3.88
2023-03-10T00:34:57.387Z,3.88
2023-03-10T00:35:07.895Z,3.88
2023-03-10T00:35:18.407Z,3.86
2023-03-10T00:35:28.901Z,3.88
2023-03-10T00:35:39.422Z,3.88
2023-03-10T00:35:49.942Z,3.88
2023-03-10T00:36:00.442Z,3.88
2023-03-10T00:36:10.994Z,3.88
2023-03-10T00:36:21.436Z,3.88
2023-03-10T00:36:31.934Z,3.90
2023-03-10T00:36:42.430Z,3.88
2023-03-10T00:36:52.963Z,3.91
2023-03-10T00:37:03.437Z,3.90
2023-03-10T00:37:13.973Z,3.90
2023-03-10T00:37:24.442Z,3.93
2023-03-10T00:37:34.954Z,3.93
2023-03-10T00:37:45.491Z,3.93
2023-03-10T00:37:55.963Z,3.94
2023-03-10T00:38:06.472Z,3.94
2023-03-10T00:38:16.970Z,3.96
2023-03-10T00:38:27.475Z,3.96
2023-03-10T00:38:37.994Z,3.97
2023-03-10T00:38:48.493Z,3.97
2023-03-10T00:38:59.002Z,3.98
2023-03-10T00:39:11.799Z,3.98
2023-03-10T00:39:20.007Z,4.02
2023-03-10T00:39:30.510Z,4.02
2023-03-10T00:39:41.094Z,4.04
2023-03-10T00:39:51.534Z,4.04
2023-03-10T00:40:02.029Z,4.04
2023-03-10T00:40:12.537Z,4.05
2023-03-10T00:40:23.047Z,4.05
2023-03-10T00:40:33.547Z,4.04
2023-03-10T00:40:44.058Z,4.08
2023-03-10T00:40:54.561Z,4.08
2023-03-10T00:41:05.064Z,4.06
2023-03-10T00:41:15.574Z,4.06
2023-03-10T00:41:26.091Z,4.09
2023-03-10T00:41:36.631Z,4.09
2023-03-10T00:41:47.115Z,4.09
2023-03-10T00:41:57.596Z,4.11
2023-03-10T00:42:08.102Z,4.11
2023-03-10T00:42:18.601Z,4.12
2023-03-10T00:42:29.116Z,4.14
2023-03-10T00:42:39.611Z,4.14
2023-03-10T00:42:50.114Z,4.14
2023-03-10T00:43:00.638Z,4.14
2023-03-10T00:43:11.127Z,4.14
2023-03-10T00:43:21.625Z,4.14
2023-03-10T00:43:32.133Z,4.15
2023-03-10T00:43:42.646Z,4.18
2023-03-10T00:43:53.161Z,4.15
2023-03-10T00:44:03.648Z,4.16
2023-03-10T00:44:14.151Z,4.15
2023-03-10T00:44:24.654Z,4.16
2023-03-10T00:44:35.162Z,4.16
2023-03-10T00:44:45.666Z,4.16
2023-03-10T00:44:56.170Z,4.16
2023-03-10T00:45:06.671Z,4.18
2023-03-10T00:45:17.173Z,4.20
2023-03-10T00:45:27.682Z,4.20
2023-03-10T00:45:38.184Z,4.22
2023-03-10T00:45:48.696Z,4.22
2023-03-10T00:45:59.244Z,4.22
2023-03-10T00:46:09.773Z,4.23
2023-03-10T00:46:20.285Z,4.23
2023-03-10T00:46:30.780Z,4.22
2023-03-10T00:46:41.340Z,4.22
2023-03-10T00:46:51.716Z,4.24
2023-03-10T00:47:02.225Z,4.24
2023-03-10T00:47:12.727Z,4.24
2023-03-10T00:47:23.268Z,4.23
2023-03-10T00:47:33.731Z,4.24
2023-03-10T00:47:44.237Z,4.26
2023-03-10T00:47:54.758Z,4.26
2023-03-10T00:48:05.247Z,4.26
2023-03-10T00:48:15.746Z,4.26
2023-03-10T00:48:26.274Z,4.26
2023-03-10T00:48:36.758Z,4.26
2023-03-10T00:48:47.262Z,4.27
2023-03-10T00:48:57.780Z,4.27
2023-03-10T00:49:08.275Z,4.29
2023-03-10T00:49:18.782Z,4.27
2023-03-10T00:49:29.291Z,4.30
2023-03-10T00:49:39.787Z,4.29
2023-03-10T00:49:50.299Z,4.30
2023-03-10T00:50:00.801Z,4.30
2023-03-10T00:50:11.325Z,4.32
2023-03-10T00:50:21.810Z,4.30
2023-03-10T00:50:32.316Z,4.32
2023-03-10T00:50:42.817Z,4.32
2023-03-10T00:50:53.327Z,4.33
2023-03-10T00:51:03.823Z,4.33
2023-03-10T00:51:14.369Z,4.33
2023-03-10T00:51:24.836Z,4.34
2023-03-10T00:51:35.337Z,4.33
2023-03-10T00:51:45.844Z,4.34
2023-03-10T00:51:56.360Z,4.34
2023-03-10T00:52:06.877Z,4.36
2023-03-10T00:52:17.376Z,4.36
2023-03-10T00:52:27.859Z,4.36
2023-03-10T00:52:38.374Z,4.36
2023-03-10T00:52:48.866Z,4.36
2023-03-10T00:52:59.374Z,4.37
2023-03-10T00:53:09.876Z,4.37
2023-03-10T00:53:20.379Z,4.37
2023-03-10T00:53:30.882Z,4.36
2023-03-10T00:53:41.405Z,4.36
2023-03-10T00:53:51.897Z,4.40
2023-03-10T00:54:02.394Z,4.40
2023-03-10T00:54:12.912Z,4.40
2023-03-10T00:54:23.406Z,4.40
2023-03-10T00:54:33.915Z,4.40
2023-03-10T00:54:44.427Z,4.40
2023-03-10T00:54:54.920Z,4.40
2023-03-10T00:55:05.433Z,4.40
2023-03-10T00:55:15.949Z,4.40
2023-03-10T00:55:26.436Z,4.41
2023-03-10T00:55:36.942Z,4.41
2023-03-10T00:55:47.450Z,4.42
2023-03-10T00:55:57.948Z,4.42
2023-03-10T00:56:08.454Z,4.41
2023-03-10T00:56:18.985Z,4.42
2023-03-10T00:56:29.476Z,4.42
2023-03-10T00:56:39.973Z,4.44
2023-03-10T00:56:50.506Z,4.44
2023-03-10T00:57:00.999Z,4.44
2023-03-10T00:57:11.489Z,4.44
2023-03-10T00:57:21.996Z,4.44
2023-03-10T00:57:32.497Z,4.45
2023-03-10T00:57:43.026Z,4.44
2023-03-10T00:57:53.504Z,4.47
2023-03-10T00:58:04.010Z,4.48
2023-03-10T00:58:14.515Z,4.45
2023-03-10T00:58:25.022Z,4.48
2023-03-10T00:58:35.538Z,4.48
2023-03-10T00:58:46.039Z,4.47
2023-03-10T00:58:56.534Z,4.48
2023-03-10T00:59:07.062Z,4.45
2023-03-10T00:59:17.550Z,4.48
2023-03-10T00:59:29.616Z,4.50
2023-03-10T00:59:49.978Z,4.50
2023-03-10T00:59:50.876Z,4.48
2023-03-10T00:59:59.558Z,4.50
2023-03-10T01:00:10.059Z,4.48
2023-03-10T01:00:20.560Z,4.50
2023-03-10T01:00:31.066Z,4.51
2023-03-10T01:00:41.572Z,4.48
2023-03-10T01:00:52.094Z,4.51
2023-03-10T01:01:02.590Z,4.50
2023-03-10T01:01:13.095Z,4.50
2023-03-10T01:01:23.630Z,4.50
2023-03-10T01:01:34.105Z,4.50
2023-03-10T01:01:44.809Z,4.51
2023-03-10T01:01:55.136Z,4.50
2023-03-10T01:02:05.670Z,4.50
2023-03-10T01:02:16.108Z,4.51
2023-03-10T01:02:26.604Z,4.51
2023-03-10T01:02:37.119Z,4.52
2023-03-10T01:02:47.617Z,4.51
2023-03-10T01:02:58.131Z,4.52
2023-03-10T01:03:08.622Z,4.51
2023-03-10T01:03:19.156Z,4.51
2023-03-10T01:03:29.630Z,4.52
2023-03-10T01:03:40.138Z,4.52
2023-03-10T01:03:50.645Z,4.51
2023-03-10T01:04:01.196Z,4.51
2023-03-10T01:04:11.718Z,4.51
2023-03-10T01:04:22.261Z,4.51
2023-03-10T01:04:32.673Z,4.52
2023-03-10T01:04:43.300Z,4.54
2023-03-10T01:04:53.662Z,4.55
2023-03-10T01:05:04.162Z,4.52
2023-03-10T01:05:14.671Z,4.54
2023-03-10T01:05:25.169Z,4.55
2023-03-10T01:05:35.681Z,4.55
2023-03-10T01:05:46.180Z,4.54
2023-03-10T01:05:57.207Z,4.54
2023-03-10T01:06:07.682Z,4.55
2023-03-10T01:06:18.217Z,4.55
2023-03-10T01:06:28.697Z,4.55
2023-03-10T01:06:39.196Z,4.55
2023-03-10T01:06:49.713Z,4.58
2023-03-10T01:07:00.232Z,4.59
2023-03-10T01:07:10.722Z,4.59
2023-03-10T01:07:21.234Z,4.58
2023-03-10T01:07:31.722Z,4.58
2023-03-10T01:07:42.231Z,4.55
2023-03-10T01:07:52.743Z,4.55
2023-03-10T01:08:03.234Z,4.59
2023-03-10T01:08:13.739Z,4.58
2023-03-10T01:08:24.248Z,4.58
2023-03-10T01:08:34.754Z,4.59
2023-03-10T01:08:45.250Z,4.58
2023-03-10T01:08:55.764Z,4.59
2023-03-10T01:09:06.278Z,4.59
2023-03-10T01:09:16.789Z,4.60
2023-03-10T01:09:27.271Z,4.58
2023-03-10T01:09:37.781Z,4.58
2023-03-10T01:09:48.282Z,4.58
2023-03-10T01:09:58.804Z,4.59
2023-03-10T01:10:09.285Z,4.59
2023-03-10T01:10:19.793Z,4.58
2023-03-10T01:10:30.292Z,4.59
2023-03-10T01:10:40.814Z,4.59
2023-03-10T01:10:51.330Z,4.59
2023-03-10T01:11:01.857Z,4.58
2023-03-10T01:11:12.315Z,4.58
2023-03-10T01:11:22.859Z,4.59
2023-03-10T01:11:33.325Z,4.58
2023-03-10T01:11:43.833Z,4.59
2023-03-10T01:11:54.352Z,4.58
2023-03-10T01:12:04.839Z,4.59
2023-03-10T01:12:15.356Z,4.55
2023-03-10T01:12:25.853Z,4.55
2023-03-10T01:12:36.351Z,4.55
2023-03-10T01:12:46.864Z,4.59
2023-03-10T01:12:57.361Z,4.58
2023-03-10T01:13:07.877Z,4.55
2023-03-10T01:13:18.376Z,4.55
2023-03-10T01:13:28.888Z,4.58
2023-03-10T01:13:41.084Z,4.58
2023-03-10T01:13:49.911Z,4.59
2023-03-10T01:14:00.398Z,4.59
2023-03-10T01:14:10.901Z,4.59
2023-03-10T01:14:21.406Z,4.55
2023-03-10T01:14:31.926Z,4.58
2023-03-10T01:14:42.411Z,4.59
2023-03-10T01:14:52.938Z,4.58
2023-03-10T01:15:03.445Z,4.59
2023-03-10T01:15:13.961Z,4.58
2023-03-10T01:15:24.432Z,4.58
2023-03-10T01:15:34.938Z,4.55
2023-03-10T01:15:45.480Z,4.58
2023-03-10T01:15:56.009Z,4.59
2023-03-10T01:16:06.581Z,4.58
2023-03-10T01:16:17.036Z,4.59
2023-03-10T01:16:27.540Z,4.58
2023-03-10T01:16:37.978Z,4.59
2023-03-10T01:16:48.478Z,4.59
2023-03-10T01:16:58.974Z,4.58
2023-03-10T01:17:09.480Z,4.59
2023-03-10T01:17:20.018Z,4.58
2023-03-10T01:17:30.514Z,4.59
2023-03-10T01:17:41.002Z,4.58
2023-03-10T01:17:51.513Z,4.59
2023-03-10T01:18:02.016Z,4.58
2023-03-10T01:18:12.516Z,4.59
2023-03-10T01:18:23.029Z,4.59
2023-03-10T01:18:33.543Z,4.60
2023-03-10T01:18:44.040Z,4.59
2023-03-10T01:18:54.580Z,4.60
2023-03-10T01:19:05.050Z,4.60
2023-03-10T01:19:15.556Z,4.62
2023-03-10T01:19:26.062Z,4.60
2023-03-10T01:19:36.566Z,4.62
2023-03-10T01:19:47.081Z,4.62
2023-03-10T01:19:57.582Z,4.60
2023-03-10T01:20:08.082Z,4.62
2023-03-10T01:20:18.587Z,4.62
2023-03-10T01:20:29.092Z,4.62
2023-03-10T01:20:39.594Z,4.63
2023-03-10T01:20:50.106Z,4.65
2023-03-10T01:21:00.614Z,4.62
2023-03-10T01:21:11.105Z,4.63
2023-03-10T01:21:21.615Z,4.63
2023-03-10T01:21:32.121Z,4.62
2023-03-10T01:21:42.620Z,4.63
2023-03-10T01:21:53.146Z,4.65
2023-03-10T01:22:03.664Z,4.65
2023-03-10T01:22:14.173Z,4.63
2023-03-10T01:22:24.639Z,4.63
2023-03-10T01:22:35.177Z,4.65
2023-03-10T01:22:45.649Z,4.65
2023-03-10T01:22:56.147Z,4.66
2023-03-10T01:23:06.660Z,4.65
2023-03-10T01:23:17.173Z,4.66
2023-03-10T01:23:27.667Z,4.66
2023-03-10T01:23:38.189Z,4.67
2023-03-10T01:23:48.687Z,4.67
2023-03-10T01:23:59.177Z,4.67
2023-03-10T01:24:09.680Z,4.69
2023-03-10T01:24:20.187Z,4.70
2023-03-10T01:24:30.692Z,4.69
2023-03-10T01:24:41.198Z,4.69
2023-03-10T01:24:51.695Z,4.70
2023-03-10T01:25:02.206Z,4.69
2023-03-10T01:25:12.706Z,4.69
2023-03-10T01:25:23.237Z,4.69
2023-03-10T01:25:33.709Z,4.69
2023-03-10T01:25:44.238Z,4.70
2023-03-10T01:25:54.723Z,4.70
2023-03-10T01:26:05.233Z,4.70
2023-03-10T01:26:18.129Z,4.73
2023-03-10T01:26:26.237Z,4.72
2023-03-10T01:26:36.742Z,4.72
2023-03-10T01:26:47.279Z,4.72
2023-03-10T01:26:57.770Z,4.72
2023-03-10T01:27:08.275Z,4.72
2023-03-10T01:27:18.772Z,4.70
2023-03-10T01:27:29.270Z,4.70
2023-03-10T01:27:39.779Z,4.72
2023-03-10T01:27:50.289Z,4.73
2023-03-10T01:28:00.788Z,4.77
2023-03-10T01:28:11.318Z,4.77
2023-03-10T01:28:21.808Z,4.78
2023-03-10T01:28:32.303Z,4.77
2023-03-10T01:28:42.818Z,4.77
2023-03-10T01:28:53.337Z,4.77
2023-03-10T01:29:03.827Z,4.80
2023-03-10T01:29:14.333Z,4.78
2023-03-10T01:29:24.835Z,4.80
2023-03-10T01:29:35.339Z,4.80
2023-03-10T01:29:45.844Z,4.80
2023-03-10T01:29:56.345Z,4.80
2023-03-10T01:30:06.855Z,4.80
2023-03-10T01:30:17.364Z,4.82
2023-03-10T01:30:27.872Z,4.80
2023-03-10T01:30:38.374Z,4.82
2023-03-10T01:30:48.876Z,4.82
2023-03-10T01:30:59.414Z,4.82
2023-03-10T01:31:09.910Z,4.84
2023-03-10T01:31:20.442Z,4.82
2023-03-10T01:31:30.952Z,4.84
2023-03-10T01:31:41.534Z,4.82
2023-03-10T01:31:51.920Z,4.82
2023-03-10T01:32:02.404Z,4.82
2023-03-10T01:32:12.950Z,4.85
2023-03-10T01:32:23.447Z,4.85
2023-03-10T01:32:33.983Z,4.88
2023-03-10T01:32:44.609Z,4.89
2023-03-10T01:32:55.024Z,4.91
2023-03-10T01:33:05.448Z,4.91
2023-03-10T01:33:15.947Z,4.92
2023-03-10T01:33:26.479Z,4.91
2023-03-10T01:33:36.963Z,4.94
2023-03-10T01:33:47.484Z,4.94
2023-03-10T01:33:57.981Z,4.96
2023-03-10T01:34:08.505Z,4.96
2023-03-10T01:34:18.990Z,4.97
2023-03-10T01:34:29.496Z,4.97
2023-03-10T01:34:39.996Z,4.99
2023-03-10T01:34:50.512Z,4.99
2023-03-10T01:35:01.010Z,5.00
2023-03-10T01:35:11.520Z,5.02
2023-03-10T01:35:22.024Z,5.03
2023-03-10T01:35:32.613Z,5.02
2023-03-10T01:35:43.084Z,5.03
2023-03-10T01:35:53.618Z,5.03
2023-03-10T01:36:04.097Z,5.03
2023-03-10T01:36:14.673Z,5.04
2023-03-10T01:36:25.077Z,5.03
2023-03-10T01:36:35.605Z,5.03
2023-03-10T01:36:46.084Z,5.03
2023-03-10T01:36:56.583Z,5.04
2023-03-10T01:37:07.085Z,5.03
2023-03-10T01:37:17.587Z,5.04
2023-03-10T01:37:28.093Z,5.03
2023-03-10T01:37:38.600Z,5.04
2023-03-10T01:37:49.102Z,5.04
2023-03-10T01:37:59.606Z,5.06
2023-03-10T01:38:10.108Z,5.06
2023-03-10T01:38:20.610Z,5.03
2023-03-10T01:38:31.130Z,5.04
2023-03-10T01:38:41.621Z,5.06
2023-03-10T01:38:52.125Z,5.04
2023-03-10T01:39:02.642Z,5.04
2023-03-10T01:39:13.135Z,5.04
2023-03-10T01:39:23.658Z,5.07
2023-03-10T01:39:34.154Z,5.04
2023-03-10T01:39:44.648Z,5.06
2023-03-10T01:39:55.153Z,5.04
2023-03-10T01:40:05.660Z,5.07
2023-03-10T01:40:16.174Z,5.06
2023-03-10T01:40:26.669Z,5.06
2023-03-10T01:40:37.172Z,5.06
2023-03-10T01:40:47.685Z,5.06
2023-03-10T01:40:58.193Z,5.07
2023-03-10T01:41:08.686Z,5.06
2023-03-10T01:41:19.189Z,5.06
2023-03-10T01:41:29.726Z,5.07
2023-03-10T01:41:40.243Z,5.07
2023-03-10T01:41:50.716Z,5.09
2023-03-10T01:42:01.234Z,5.07
2023-03-10T01:42:11.716Z,5.09
2023-03-10T01:42:22.221Z,5.10
2023-03-10T01:42:32.730Z,5.12
2023-03-10T01:42:43.233Z,5.12
2023-03-10T01:42:53.758Z,5.13
2023-03-10T01:43:04.249Z,5.13
2023-03-10T01:43:14.756Z,5.12
2023-03-10T01:43:25.266Z,5.15
2023-03-10T01:43:35.786Z,5.17
2023-03-10T01:43:46.269Z,5.17
2023-03-10T01:43:56.807Z,5.18
2023-03-10T01:44:07.281Z,5.17
2023-03-10T01:44:17.787Z,5.20
2023-03-10T01:44:28.302Z,5.20
2023-03-10T01:44:38.791Z,5.20
2023-03-10T01:44:49.324Z,5.22
2023-03-10T01:44:59.809Z,5.24
2023-03-10T01:45:10.308Z,5.25
2023-03-10T01:45:20.822Z,5.30
2023-03-10T01:45:31.322Z,5.31
2023-03-10T01:45:41.829Z,5.33
2023-03-10T01:45:52.341Z,5.33
2023-03-10T01:46:02.848Z,5.33
2023-03-10T01:46:13.403Z,5.38
2023-03-10T01:46:23.938Z,5.38
2023-03-10T01:46:34.478Z,5.42
2023-03-10T01:46:45.030Z,5.40
2023-03-10T01:46:55.489Z,5.40
2023-03-10T01:47:05.899Z,5.45
2023-03-10T01:47:16.397Z,5.43
2023-03-10T01:47:26.902Z,5.45
2023-03-10T01:47:37.406Z,5.46
2023-03-10T01:47:47.916Z,5.46
2023-03-10T01:47:58.418Z,5.49
2023-03-10T01:48:08.925Z,5.48
2023-03-10T01:48:19.440Z,5.49
2023-03-10T01:48:29.934Z,5.51
2023-03-10T01:48:40.469Z,5.51
2023-03-10T01:48:50.949Z,5.53
2023-03-10T01:49:01.456Z,5.54
2023-03-10T01:49:11.978Z,5.51
2023-03-10T01:49:22.467Z,5.53
2023-03-10T01:49:32.970Z,5.54
2023-03-10T01:49:43.472Z,5.54
2023-03-10T01:49:53.982Z,5.56
2023-03-10T01:50:04.496Z,5.54
2023-03-10T01:50:15.012Z,5.56
2023-03-10T01:50:25.495Z,5.57
2023-03-10T01:50:35.995Z,5.56
2023-03-10T01:50:46.506Z,5.61
2023-03-10T01:50:57.012Z,5.65
2023-03-10T01:51:07.519Z,5.83
2023-03-10T01:51:18.021Z,5.94
2023-03-10T01:51:28.537Z,6.04
2023-03-10T01:51:39.041Z,6.11
2023-03-10T01:51:49.553Z,6.15
2023-03-10T01:52:00.061Z,6.15
2023-03-10T01:52:10.561Z,6.18
2023-03-10T01:52:21.076Z,6.21
2023-03-10T01:52:31.574Z,6.22
2023-03-10T01:52:42.088Z,6.21
2023-03-10T01:52:52.620Z,6.22
2023-03-10T01:53:03.095Z,6.22
2023-03-10T01:53:13.606Z,6.22
2023-03-10T01:53:24.115Z,6.27
2023-03-10T01:53:34.620Z,6.27
2023-03-10T01:53:45.131Z,6.27
2023-03-10T01:53:55.640Z,6.28
2023-03-10T01:54:06.154Z,6.28
2023-03-10T01:54:16.680Z,6.30
2023-03-10T01:54:27.149Z,6.28
2023-03-10T01:54:37.669Z,6.30
2023-03-10T01:54:48.167Z,6.28
2023-03-10T01:54:58.674Z,6.25
2023-03-10T01:55:09.179Z,6.27
2023-03-10T01:55:19.692Z,6.25
2023-03-10T01:55:30.193Z,6.25
2023-03-10T01:55:40.713Z,6.22
2023-03-10T01:55:51.204Z,6.19
2023-03-10T01:56:01.723Z,6.19
2023-03-10T01:56:12.213Z,6.19
2023-03-10T01:56:22.714Z,6.18
2023-03-10T01:56:33.221Z,6.18
2023-03-10T01:56:43.726Z,6.18
2023-03-10T01:56:54.233Z,6.19
2023-03-10T01:57:04.754Z,6.18
2023-03-10T01:57:15.267Z,6.19
2023-03-10T01:57:25.755Z,6.19
2023-03-10T01:57:36.254Z,6.19
2023-03-10T01:57:46.766Z,6.22
2023-03-10T01:57:57.270Z,6.22
2023-03-10T01:58:07.804Z,6.22
2023-03-10T01:58:18.291Z,6.27
2023-03-10T01:58:28.790Z,6.31
2023-03-10T01:58:39.310Z,6.34
2023-03-10T01:58:49.808Z,6.37
2023-03-10T01:59:00.309Z,6.37
2023-03-10T01:59:10.816Z,6.38
2023-03-10T01:59:21.358Z,6.43
2023-03-10T01:59:31.830Z,6.48
2023-03-10T01:59:42.338Z,6.51
2023-03-10T01:59:52.861Z,6.55
2023-03-10T02:00:03.841Z,6.56
2023-03-10T02:00:13.863Z,6.58
2023-03-10T02:00:24.386Z,6.59
2023-03-10T02:00:34.884Z,6.56
2023-03-10T02:00:45.435Z,6.59
2023-03-10T02:00:55.955Z,6.61
2023-03-10T02:01:06.480Z,6.59
2023-03-10T02:01:16.979Z,6.59
2023-03-10T02:01:27.412Z,6.59
2023-03-10T02:01:37.977Z,6.59
2023-03-10T02:01:48.481Z,6.59
2023-03-10T02:01:59.017Z,6.59
2023-03-10T02:02:09.529Z,6.59
2023-03-10T02:02:20.088Z,6.56
2023-03-10T02:02:30.577Z,6.55
2023-03-10T02:02:40.996Z,6.55
2023-03-10T02:02:51.476Z,6.56
2023-03-10T02:03:01.984Z,6.61
2023-03-10T02:03:12.489Z,6.62
2023-03-10T02:03:22.999Z,6.66
2023-03-10T02:03:33.512Z,6.69
2023-03-10T02:03:44.021Z,6.70
2023-03-10T02:03:54.520Z,6.71
2023-03-10T02:04:05.030Z,6.74
2023-03-10T02:04:15.533Z,6.73
2023-03-10T02:04:26.040Z,6.74
2023-03-10T02:04:36.568Z,6.74
2023-03-10T02:04:47.055Z,6.74
2023-03-10T02:04:57.559Z,6.76
2023-03-10T02:05:08.068Z,6.76
2023-03-10T02:05:18.573Z,6.73
2023-03-10T02:05:29.086Z,6.73
2023-03-10T02:05:39.585Z,6.73
2023-03-10T02:05:50.092Z,6.76
2023-03-10T02:06:00.603Z,6.76
2023-03-10T02:06:11.113Z,6.77
2023-03-10T02:06:21.611Z,6.79
2023-03-10T02:06:32.124Z,6.80
2023-03-10T02:06:42.619Z,6.80
2023-03-10T02:06:53.123Z,6.81
2023-03-10T02:07:03.661Z,6.81
2023-03-10T02:07:14.147Z,6.81
2023-03-10T02:07:24.654Z,6.84
2023-03-10T02:07:35.174Z,6.88
2023-03-10T02:07:45.677Z,6.87
2023-03-10T02:07:56.169Z,6.88
2023-03-10T02:08:06.674Z,6.87
2023-03-10T02:08:17.178Z,6.87
2023-03-10T02:08:27.692Z,6.89
2023-03-10T02:08:38.185Z,6.91
2023-03-10T02:08:48.699Z,6.92
2023-03-10T02:08:59.197Z,6.92
2023-03-10T02:09:09.706Z,6.92
2023-03-10T02:09:20.217Z,6.91
2023-03-10T02:09:30.740Z,6.92
2023-03-10T02:09:41.241Z,6.94
2023-03-10T02:09:51.736Z,6.91
2023-03-10T02:10:02.266Z,6.94
2023-03-10T02:10:12.755Z,6.92
2023-03-10T02:10:23.262Z,6.92
2023-03-10T02:10:33.787Z,6.94
2023-03-10T02:10:44.277Z,6.94
2023-03-10T02:10:54.783Z,6.91
2023-03-10T02:11:05.290Z,6.94
2023-03-10T02:11:15.790Z,6.95
2023-03-10T02:11:26.300Z,6.95
2023-03-10T02:11:36.819Z,6.98
2023-03-10T02:11:47.309Z,7.02
2023-03-10T02:11:57.822Z,7.06
2023-03-10T02:12:08.345Z,7.09
2023-03-10T02:12:18.852Z,7.12
2023-03-10T02:12:29.342Z,7.12
2023-03-10T02:12:39.854Z,7.10
2023-03-10T02:12:50.356Z,7.10
2023-03-10T02:13:00.890Z,7.13
2023-03-10T02:13:11.371Z,7.12
2023-03-10T02:13:21.874Z,7.15
2023-03-10T02:13:32.391Z,7.15
2023-03-10T02:13:42.900Z,7.17
2023-03-10T02:13:53.403Z,7.16
2023-03-10T02:14:03.910Z,7.20
2023-03-10T02:14:14.420Z,7.20
2023-03-10T02:14:24.931Z,7.21
2023-03-10T02:14:35.433Z,7.27
2023-03-10T02:14:45.959Z,7.30
2023-03-10T02:14:56.445Z,7.28
2023-03-10T02:15:06.961Z,7.30
2023-03-10T02:15:17.460Z,7.31
2023-03-10T02:15:27.980Z,7.28
2023-03-10T02:15:38.466Z,7.27
2023-03-10T02:15:48.979Z,7.28
2023-03-10T02:15:59.561Z,7.25
2023-03-10T02:16:10.068Z,7.27
2023-03-10T02:16:20.517Z,7.27
2023-03-10T02:16:31.084Z,7.25
2023-03-10T02:16:41.608Z,7.25
2023-03-10T02:16:52.033Z,7.27
2023-03-10T02:17:02.527Z,7.28
2023-03-10T02:17:13.037Z,7.30
2023-03-10T02:17:23.657Z,7.31
2023-03-10T02:17:34.095Z,7.31
2023-03-10T02:17:44.650Z,7.32
2023-03-10T02:17:55.171Z,7.30
2023-03-10T02:18:05.647Z,7.32
2023-03-10T02:18:16.076Z,7.30
2023-03-10T02:18:26.581Z,7.31
2023-03-10T02:18:37.094Z,7.31
2023-03-10T02:18:47.595Z,7.35
2023-03-10T02:18:58.111Z,7.42
2023-03-10T02:19:08.608Z,7.45
2023-03-10T02:19:19.118Z,7.46
2023-03-10T02:19:29.625Z,7.46
2023-03-10T02:19:40.132Z,7.48
2023-03-10T02:19:50.661Z,7.48